Time;durP1;ratioP1;P1;durP2;ratioP2;P2;SDS_P1;SDS_P2;PMS_P1;PMS_P2;Temp;Humidity;BMP_temperature;BMP_pressure;BME280_temperature;BME280_humidity;BME280_pressure;Samples;Min_cycle;Max_cycle;Signal;HPM_P1;HPM_P2
2021/03/07 00:00:32;;;;;;;30.73;13.57;;;;;;;-0.98;52.33;101990.47;125570;1099;104271;-77
2021/03/07 00:03:10;;;;;;;31.13;14.57;;;;;;;-1.03;52.79;101986.50;125599;1097;104232;-77
2021/03/07 00:05:39;;;;;;;28.37;14.60;;;;;;;-1.07;52.43;101985.28;125607;1099;104205;-77
2021/03/07 00:08:08;;;;;;;32.33;15.37;;;;;;;-1.10;53.03;101975.55;125621;1097;104184;-77
2021/03/07 00:10:37;;;;;;;34.53;16.47;;;;;;;-1.12;52.85;101971.91;125624;1099;104395;-76
2021/03/07 00:13:06;;;;;;;34.03;16.00;;;;;;;-1.09;53.03;101966.18;125558;1099;104361;-77
2021/03/07 00:15:35;;;;;;;33.87;16.43;;;;;;;-1.06;51.90;101961.35;125635;1099;104239;-77
2021/03/07 00:18:04;;;;;;;35.97;16.10;;;;;;;-1.02;52.62;101960.00;125603;1099;104235;-77
2021/03/07 00:20:33;;;;;;;32.70;16.53;;;;;;;-1.03;52.03;101958.16;125603;1099;104264;-77
2021/03/07 00:23:02;;;;;;;33.93;16.47;;;;;;;-1.03;53.12;101953.01;125559;1099;104195;-77
2021/03/07 00:25:31;;;;;;;36.17;17.43;;;;;;;-1.09;52.47;101949.05;125589;1099;104178;-77
2021/03/07 00:28:00;;;;;;;32.20;16.40;;;;;;;-1.05;52.02;101955.42;125638;1099;104303;-77
2021/03/07 00:30:29;;;;;;;34.60;16.33;;;;;;;-1.07;53.28;101938.91;125612;1099;104166;-77
2021/03/07 00:32:59;;;;;;;32.40;15.93;;;;;;;-1.07;52.28;101940.58;125637;1096;104200;-77
2021/03/07 00:35:28;;;;;;;33.63;16.50;;;;;;;-1.08;52.40;101937.06;125637;1099;104190;-77
2021/03/07 00:37:57;;;;;;;35.73;17.57;;;;;;;-1.06;53.42;101929.50;125591;1099;104198;-77
2021/03/07 00:40:26;;;;;;;35.90;16.83;;;;;;;-1.09;53.75;101931.02;125628;1099;104169;-76
2021/03/07 00:42:55;;;;;;;34.63;16.13;;;;;;;-1.07;52.75;101940.58;125570;1097;104166;-77
2021/03/07 00:45:24;;;;;;;33.40;15.80;;;;;;;-1.11;52.95;101932.53;125615;1099;104297;-77
2021/03/07 00:47:53;;;;;;;35.13;15.60;;;;;;;-1.15;52.44;101938.09;125665;1099;104304;-77
2021/03/07 00:50:24;;;;;;;31.33;15.03;;;;;;;-1.22;52.76;101927.88;125581;1099;104175;-77
2021/03/07 00:52:55;;;;;;;39.77;18.50;;;;;;;-1.30;53.53;101923.59;125622;1099;104207;-77
2021/03/07 00:55:24;;;;;;;37.27;18.57;;;;;;;-1.41;53.01;101917.30;125591;1099;104210;-77
2021/03/07 00:57:52;;;;;;;37.97;19.67;;;;;;;-1.47;52.92;101914.08;125634;1099;104204;-77
2021/03/07 01:00:24;;;;;;;38.07;20.13;;;;;;;-1.49;53.05;101915.59;125568;1099;104294;-77
2021/03/07 01:02:53;;;;;;;38.63;18.13;;;;;;;-1.53;53.31;101913.42;125629;1099;104169;-77
2021/03/07 01:05:25;;;;;;;33.57;17.60;;;;;;;-1.57;53.19;101911.26;125572;1099;104201;-76
2021/03/07 01:07:53;;;;;;;34.17;17.37;;;;;;;-1.58;53.94;101907.78;125606;1096;104213;-76
2021/03/07 01:10:27;;;;;;;36.47;17.13;;;;;;;-1.56;54.12;101905.38;125663;1097;104182;-76
2021/03/07 01:12:55;;;;;;;33.13;15.13;;;;;;;-1.56;54.28;101897.66;125671;1099;104384;-76
2021/03/07 01:15:28;;;;;;;38.60;16.53;;;;;;;-1.59;53.34;101895.69;125560;1099;104213;-77
2021/03/07 01:17:57;;;;;;;31.13;15.33;;;;;;;-1.67;53.56;101891.36;125643;1099;104354;-76
2021/03/07 01:20:28;;;;;;;34.17;15.53;;;;;;;-1.73;54.28;101886.48;125631;1099;104178;-77
2021/03/07 01:22:58;;;;;;;29.10;14.93;;;;;;;-1.79;54.56;101890.05;125642;1099;104209;-76
2021/03/07 01:25:28;;;;;;;33.87;15.97;;;;;;;-1.85;53.86;101880.93;125615;1099;104181;-77
2021/03/07 01:27:57;;;;;;;33.60;15.90;;;;;;;-1.87;54.04;101881.50;125589;1099;104299;-77
2021/03/07 01:30:28;;;;;;;30.97;14.80;;;;;;;-1.90;53.84;101869.24;125598;1097;104303;-76
2021/03/07 01:32:57;;;;;;;33.13;15.80;;;;;;;-1.90;54.21;101870.87;125657;1099;104182;-77
2021/03/07 01:35:26;;;;;;;36.23;16.63;;;;;;;-1.87;53.67;101869.58;125614;1099;104188;-76
2021/03/07 01:37:55;;;;;;;33.87;16.13;;;;;;;-1.83;54.17;101868.23;125616;1099;104498;-76
2021/03/07 01:40:27;;;;;;;32.53;15.90;;;;;;;-1.75;55.14;101874.20;125598;1098;105297;-76
2021/03/07 01:42:58;;;;;;;35.27;16.87;;;;;;;-1.73;54.92;101867.55;125635;1097;104178;-77
2021/03/07 01:45:29;;;;;;;31.90;15.73;;;;;;;-1.70;55.28;101867.87;125600;1097;104175;-76
2021/03/07 01:48:01;;;;;;;36.87;16.90;;;;;;;-1.70;54.84;101860.14;125625;1099;104367;-75
2021/03/07 01:50:33;;;;;;;32.47;15.97;;;;;;;-1.68;55.47;101872.44;125628;1097;104598;-76
2021/03/07 01:53:03;;;;;;;31.90;14.87;;;;;;;-1.69;55.15;101859.41;125594;1097;104203;-76
2021/03/07 01:55:35;;;;;;;34.13;15.23;;;;;;;-1.73;54.65;101864.97;125548;1099;104229;-77
2021/03/07 01:58:08;;;;;;;32.90;15.80;;;;;;;-1.77;55.10;101858.59;125601;1099;104172;-76
2021/03/07 02:00:37;;;;;;;30.62;14.93;;;;;;;-1.78;55.08;101861.00;125606;1099;104165;-76
2021/03/07 02:03:06;;;;;;;32.30;15.03;;;;;;;-1.84;54.40;101858.67;125546;1099;104208;-76
2021/03/07 02:05:36;;;;;;;32.00;14.27;;;;;;;-1.82;54.53;101860.67;125579;1099;104204;-76
2021/03/07 02:08:06;;;;;;;32.53;14.87;;;;;;;-1.85;54.34;101851.73;125658;1099;104172;-76
2021/03/07 02:10:38;;;;;;;31.97;14.23;;;;;;;-1.88;54.91;101846.25;125651;1099;104270;-76
2021/03/07 02:13:12;;;;;;;34.83;15.53;;;;;;;-1.87;55.32;101836.13;125638;1099;104182;-76
2021/03/07 02:15:43;;;;;;;33.53;15.50;;;;;;;-1.86;54.99;101845.64;125673;1099;104303;-77
2021/03/07 02:18:14;;;;;;;36.33;15.90;;;;;;;-1.90;55.67;101840.94;125581;1098;104226;-76
2021/03/07 02:20:47;;;;;;;34.57;14.93;;;;;;;-1.93;54.70;101840.61;125641;1099;104178;-76
2021/03/07 02:23:21;;;;;;;33.30;15.63;;;;;;;-1.95;55.91;101841.19;125614;1099;104194;-76
2021/03/07 02:25:52;;;;;;;34.08;15.00;;;;;;;-2.00;55.87;101843.27;125616;1099;104172;-76
2021/03/07 02:28:23;;;;;;;34.77;16.00;;;;;;;-1.97;56.11;101838.45;125621;1099;104201;-76
2021/03/07 02:30:52;;;;;;;32.67;15.47;;;;;;;-1.92;55.71;101844.98;125560;1099;104341;-76
2021/03/07 02:33:27;;;;;;;38.77;16.97;;;;;;;-1.99;55.79;101840.86;125611;1099;104221;-76
2021/03/07 02:36:02;;;;;;;36.00;16.67;;;;;;;-2.04;54.77;101846.24;125597;1097;104230;-76
2021/03/07 02:38:34;;;;;;;31.07;16.03;;;;;;;-2.09;55.59;101838.03;125616;1099;104174;-76
2021/03/07 02:41:04;;;;;;;39.97;17.53;;;;;;;-2.09;56.37;101839.70;125610;1098;104351;-76
2021/03/07 02:43:38;;;;;;;36.57;16.40;;;;;;;-2.09;55.05;101829.41;125606;1099;104194;-76
2021/03/07 02:46:06;;;;;;;;;;;;;;;-2.13;56.48;101822.14;125609;1099;104242;-77
2021/03/07 02:48:38;;;;;;;34.07;15.30;;;;;;;-2.16;55.28;101822.71;125641;1099;104166;-76
2021/03/07 02:51:09;;;;;;;32.23;16.27;;;;;;;-2.14;55.43;101822.88;125595;1099;104165;-76
2021/03/07 02:53:39;;;;;;;38.60;16.40;;;;;;;-2.14;55.75;101826.34;125604;1099;104395;-76
2021/03/07 02:56:11;;;;;;;40.67;16.40;;;;;;;-2.14;56.19;101816.06;125553;1099;104184;-76
2021/03/07 02:58:43;;;;;;;32.47;15.80;;;;;;;-2.18;55.79;101814.83;125608;1099;104168;-76
2021/03/07 03:01:17;;;;;;;30.63;15.30;;;;;;;-2.18;55.94;101813.93;125641;1099;104163;-76
2021/03/07 03:03:49;;;;;;;;;;;;;;;-2.18;56.42;101811.36;125668;1099;104583;-76
2021/03/07 03:06:19;;;;;;;32.33;15.50;;;;;;;-2.16;56.77;101817.56;125569;1099;104200;-76
2021/03/07 03:08:51;;;;;;;33.13;16.57;;;;;;;-2.20;56.49;101811.20;125585;1099;104230;-76
2021/03/07 03:11:22;;;;;;;33.10;15.10;;;;;;;-2.21;55.90;101808.45;125636;1099;104679;-76
2021/03/07 03:13:52;;;;;;;35.03;16.70;;;;;;;-2.20;56.01;101807.69;125577;1099;104264;-76
2021/03/07 03:16:26;;;;;;;37.43;16.80;;;;;;;-2.18;56.16;101808.78;125618;1099;104168;-76
2021/03/07 03:18:58;;;;;;;34.53;16.63;;;;;;;-2.11;56.77;101810.34;125657;1099;104290;-76
2021/03/07 03:21:27;;;;;;;31.47;15.60;;;;;;;-2.12;56.79;101805.94;125559;1099;104175;-76
2021/03/07 03:23:56;;;;;;;33.53;16.80;;;;;;;-2.12;55.92;101812.02;125624;1099;104198;-76
2021/03/07 03:26:26;;;;;;;33.00;16.07;;;;;;;-2.11;56.71;101818.06;125598;1099;104172;-77
2021/03/07 03:28:56;;;;;;;35.20;16.57;;;;;;;-2.14;56.59;101818.63;125616;1099;104172;-76
2021/03/07 03:31:25;;;;;;;32.13;15.60;;;;;;;-2.15;56.21;101808.19;125610;1099;104166;-76
2021/03/07 03:33:54;;;;;;;33.10;15.23;;;;;;;-2.15;56.44;101805.61;125597;1099;104204;-76
2021/03/07 03:36:23;;;;;;;31.30;14.93;;;;;;;-2.16;56.65;101809.85;125558;1097;104291;-78
2021/03/07 03:38:55;;;;;;;34.20;15.50;;;;;;;-2.18;56.97;101807.11;125601;1099;104188;-76
2021/03/07 03:41:30;;;;;;;31.40;14.73;;;;;;;-2.15;56.13;101800.47;125646;1099;104175;-76
2021/03/07 03:44:02;;;;;;;29.77;13.70;;;;;;;-2.14;57.00;101807.45;125622;1099;104238;-77
2021/03/07 03:46:41;;;;;;;28.47;12.63;;;;;;;-2.12;56.54;101803.36;125569;1097;104153;-77
2021/03/07 03:49:19;;;;;;;29.30;13.20;;;;;;;-2.10;57.35;101804.43;125581;1099;104226;-78
2021/03/07 03:51:53;;;;;;;27.50;12.43;;;;;;;-2.11;57.07;101803.53;125609;1099;104178;-77
2021/03/07 03:54:23;;;;;;;27.57;11.93;;;;;;;-2.10;56.02;101794.14;125602;1099;104172;-78
2021/03/07 03:56:53;;;;;;;26.40;12.23;;;;;;;-2.06;56.27;101791.16;125596;1097;104315;-79
2021/03/07 03:59:23;;;;;;;35.17;12.43;;;;;;;-2.06;56.51;101783.45;125576;1098;104172;-77
2021/03/07 04:01:54;;;;;;;26.63;12.20;;;;;;;-2.05;56.27;101778.47;125639;1099;104239;-77
2021/03/07 04:04:29;;;;;;;28.00;12.67;;;;;;;-2.02;57.31;101773.64;125633;1097;104206;-77
2021/03/07 04:07:00;;;;;;;26.40;11.87;;;;;;;-2.00;57.07;101774.70;125659;1099;104175;-76
2021/03/07 04:09:30;;;;;;;31.37;13.20;;;;;;;-2.00;57.44;101772.14;125614;1099;104206;-75
2021/03/07 04:11:59;;;;;;;25.83;12.07;;;;;;;-1.99;57.06;101770.50;125601;1099;104175;-76
2021/03/07 04:14:29;;;;;;;31.07;12.50;;;;;;;-2.00;57.00;101760.95;125601;1096;104268;-76
2021/03/07 04:17:02;;;;;;;28.53;12.00;;;;;;;-1.99;57.18;101766.25;125580;1099;104181;-75
2021/03/07 04:19:34;;;;;;;29.40;12.88;;;;;;;-1.96;57.29;101769.89;125615;1099;104220;-76
2021/03/07 04:22:03;;;;;;;27.95;12.25;;;;;;;-1.95;57.17;101770.05;125624;1099;104409;-75
2021/03/07 04:24:33;;;;;;;28.40;12.80;;;;;;;-1.97;57.11;101760.38;125519;1099;104211;-76
2021/03/07 04:27:02;;;;;;;27.80;12.67;;;;;;;-1.97;56.84;101766.41;125637;1099;104181;-76
2021/03/07 04:29:31;;;;;;;30.43;13.67;;;;;;;-1.95;57.10;101770.05;125586;1099;104190;-76
2021/03/07 04:32:01;;;;;;;35.50;16.13;;;;;;;-1.99;56.64;101762.78;125653;1097;104242;-76
2021/03/07 04:34:30;;;;;;;40.17;18.67;;;;;;;-2.00;56.43;101760.95;125604;1099;104306;-76
2021/03/07 04:37:00;;;;;;;36.63;18.23;;;;;;;-2.06;57.48;101760.30;125622;1099;104204;-76
2021/03/07 04:39:29;;;;;;;39.80;18.97;;;;;;;-2.10;56.51;101759.07;125630;1099;104172;-76
2021/03/07 04:41:58;;;;;;;38.73;20.30;;;;;;;-2.10;57.19;101756.50;125628;1099;104168;-76
2021/03/07 04:44:27;;;;;;;39.73;19.63;;;;;;;-2.13;57.23;101753.60;125637;1099;104323;-76
2021/03/07 04:46:56;;;;;;;37.75;17.70;;;;;;;-2.14;57.51;101749.19;125610;1099;104357;-76
2021/03/07 04:49:25;;;;;;;43.50;18.67;;;;;;;-2.13;57.44;101742.41;125612;1099;104245;-76
2021/03/07 04:51:54;;;;;;;36.97;18.60;;;;;;;-2.13;56.53;101739.84;125623;1099;104290;-76
2021/03/07 04:54:23;;;;;;;33.57;16.60;;;;;;;-2.13;57.53;101733.02;125650;1099;104348;-76
2021/03/07 04:56:52;;;;;;;33.00;15.83;;;;;;;-2.09;56.84;101739.39;125594;1099;104220;-76
2021/03/07 04:59:21;;;;;;;32.50;15.67;;;;;;;-2.09;57.15;101726.53;125599;1099;104169;-76
2021/03/07 05:01:50;;;;;;;34.47;14.70;;;;;;;-2.07;57.67;101733.67;125578;1098;104326;-76
2021/03/07 05:04:19;;;;;;;33.07;15.20;;;;;;;-2.06;57.48;101726.86;125654;1099;104221;-76
2021/03/07 05:06:48;;;;;;;35.07;16.40;;;;;;;-2.02;57.30;101726.45;125631;1099;104177;-76
2021/03/07 05:09:17;;;;;;;33.03;15.20;;;;;;;-1.97;57.87;101732.97;125606;1099;104195;-76
2021/03/07 05:11:46;;;;;;;31.93;14.43;;;;;;;-1.91;57.19;101728.48;125605;1099;104169;-76
2021/03/07 05:14:15;;;;;;;32.53;15.03;;;;;;;-1.86;56.84;101734.10;125569;1096;104216;-76
2021/03/07 05:16:44;;;;;;;32.77;14.83;;;;;;;-1.79;57.81;101725.36;125597;1099;104197;-76
2021/03/07 05:19:13;;;;;;;33.63;15.80;;;;;;;-1.70;58.10;101729.82;125600;1099;104175;-76
2021/03/07 05:21:42;;;;;;;30.83;14.73;;;;;;;-1.61;57.96;101723.80;125632;1099;104171;-76
2021/03/07 05:24:11;;;;;;;34.40;15.93;;;;;;;-1.54;57.23;101724.59;125604;1099;104176;-76
2021/03/07 05:26:40;;;;;;;35.23;15.27;;;;;;;-1.49;57.92;101725.08;125584;1099;104172;-76
2021/03/07 05:29:09;;;;;;;32.90;15.10;;;;;;;-1.43;57.22;101711.90;125590;1099;104165;-76
2021/03/07 05:31:38;;;;;;;35.20;14.00;;;;;;;-1.39;57.52;101714.05;125518;1099;104163;-76
2021/03/07 05:34:08;;;;;;;29.63;14.50;;;;;;;-1.31;56.88;101711.52;125650;1099;104245;-76
2021/03/07 05:36:38;;;;;;;34.53;15.13;;;;;;;-1.21;58.13;101713.36;125565;1099;104338;-76
2021/03/07 05:39:07;;;;;;;36.90;18.37;;;;;;;-1.17;57.81;101707.78;125492;1099;104354;-76
2021/03/07 05:41:38;;;;;;;38.60;17.27;;;;;;;-1.12;57.61;101703.99;125556;1099;104268;-76
2021/03/07 05:44:08;;;;;;;34.50;15.03;;;;;;;-1.10;57.84;101702.47;125585;1099;104178;-76
2021/03/07 05:46:39;;;;;;;38.23;16.60;;;;;;;-1.05;57.29;101707.19;125613;1099;104176;-76
2021/03/07 05:49:09;;;;;;;37.23;16.70;;;;;;;-0.98;58.09;101702.81;125542;1099;104795;-77
2021/03/07 05:51:38;;;;;;;35.67;17.20;;;;;;;-0.94;56.98;101698.88;125538;1099;107026;-76
2021/03/07 05:54:07;;;;;;;36.87;16.87;;;;;;;-0.89;58.03;101692.50;125588;1099;104165;-75
2021/03/07 05:56:37;;;;;;;44.07;18.80;;;;;;;-0.81;57.10;101699.36;125616;1099;104201;-76
2021/03/07 05:59:07;;;;;;;39.63;16.60;;;;;;;-0.71;57.96;101692.55;125628;1099;104169;-76
2021/03/07 06:01:36;;;;;;;38.73;16.80;;;;;;;-0.64;57.54;101689.80;125610;1099;104223;-76
2021/03/07 06:04:06;;;;;;;38.87;16.67;;;;;;;-0.58;57.84;101685.26;125589;1099;104168;-76
2021/03/07 06:06:35;;;;;;;30.47;15.37;;;;;;;-0.52;57.10;101684.97;125597;1096;104235;-76
2021/03/07 06:09:16;;;;;;;32.20;14.67;;;;;;;-0.43;58.18;101689.36;125645;1098;104245;-76
2021/03/07 06:11:47;;;;;;;33.30;13.60;;;;;;;-0.34;57.15;101680.69;125589;1099;104169;-76
2021/03/07 06:14:21;;;;;;;27.47;13.00;;;;;;;-0.23;58.20;101680.09;125600;1099;104178;-76
2021/03/07 06:17:06;;;;;;;28.67;12.03;;;;;;;-0.13;57.54;101676.73;125584;1099;104181;-76
2021/03/07 06:19:56;;;;;;;24.67;10.97;;;;;;;-0.01;57.47;101685.66;125601;1098;104239;-76
2021/03/07 06:22:26;;;;;;;27.70;11.43;;;;;;;0.08;57.17;101685.63;125585;1099;112796;-76
2021/03/07 06:24:55;;;;;;;28.23;10.80;;;;;;;0.17;57.35;101682.28;125625;1099;104679;-76
2021/03/07 06:27:25;;;;;;;26.70;11.00;;;;;;;0.27;57.81;101678.00;125617;1099;104172;-76
2021/03/07 06:29:58;;;;;;;24.73;10.10;;;;;;;0.33;57.22;101674.32;125535;1099;104718;-76
2021/03/07 06:32:31;;;;;;;29.27;11.00;;;;;;;0.38;57.29;101668.70;125591;1099;104224;-76
2021/03/07 06:35:01;;;;;;;27.87;11.23;;;;;;;0.48;57.91;101672.30;125601;1099;104171;-76
2021/03/07 06:37:29;;;;;;;25.33;10.67;;;;;;;0.59;57.56;101669.80;125610;1099;104309;-76
2021/03/07 06:39:59;;;;;;;23.57;9.90;;;;;;;0.63;56.84;101672.82;125630;1099;104171;-76
2021/03/07 06:42:28;;;;;;;23.43;10.13;;;;;;;0.67;56.98;101669.77;125558;1099;104293;-76
2021/03/07 06:45:03;;;;;;;25.63;11.30;;;;;;;0.77;56.88;101670.64;125582;1099;104185;-76
2021/03/07 06:47:34;;;;;;;23.77;10.53;;;;;;;0.87;56.69;101668.13;125628;1099;104583;-75
2021/03/07 06:50:15;;;;;;;25.83;11.07;;;;;;;0.96;57.07;101665.50;125616;1099;104333;-75
2021/03/07 06:52:55;;;;;;;29.90;11.90;;;;;;;1.06;57.09;101656.16;125634;1099;104220;-76
2021/03/07 06:55:26;;;;;;;24.70;10.63;;;;;;;1.21;56.91;101653.15;125606;1099;104181;-76
2021/03/07 06:57:56;;;;;;;26.53;11.73;;;;;;;1.36;57.27;101643.31;125627;1099;104182;-76
2021/03/07 07:00:39;;;;;;;26.73;10.73;;;;;;;1.52;57.30;101645.59;125616;1099;104175;-76
2021/03/07 07:03:11;;;;;;;21.83;8.53;;;;;;;1.68;57.18;101638.42;125606;1099;104264;-76
2021/03/07 07:05:42;;;;;;;22.87;9.03;;;;;;;1.83;57.20;101646.66;125629;1098;104331;-76
2021/03/07 07:08:13;;;;;;;20.87;8.43;;;;;;;1.97;57.24;101653.06;125607;1099;104283;-76
2021/03/07 07:10:57;;;;;;;24.10;9.20;;;;;;;2.06;57.03;101634.86;125649;1099;104178;-76
2021/03/07 07:13:28;;;;;;;19.33;8.10;;;;;;;2.18;56.56;101630.72;125530;1098;112687;-76
2021/03/07 07:15:59;;;;;;;18.57;8.33;;;;;;;2.31;56.77;101640.49;125634;1098;104300;-76
2021/03/07 07:18:29;;;;;;;20.33;7.87;;;;;;;2.38;56.61;101627.27;125643;1099;104163;-76
2021/03/07 07:20:59;;;;;;;20.33;8.20;;;;;;;2.52;56.58;101625.88;125579;1099;104345;-76
2021/03/07 07:23:28;;;;;;;20.37;8.67;;;;;;;2.61;56.61;101618.00;125635;1097;104169;-76
2021/03/07 07:25:58;;;;;;;18.83;8.17;;;;;;;2.68;55.80;101615.12;125642;1099;104178;-75
2021/03/07 07:28:28;;;;;;;18.40;8.00;;;;;;;2.79;56.39;101609.20;125644;1099;104338;-76
2021/03/07 07:31:03;;;;;;;18.73;7.90;;;;;;;2.90;57.00;101602.33;125637;1099;104314;-76
2021/03/07 07:33:48;;;;;;;21.10;8.70;;;;;;;3.02;56.03;101589.46;125593;1097;104201;-75
2021/03/07 07:36:25;;;;;;;18.97;8.43;;;;;;;3.13;56.49;101586.09;125656;1099;104258;-75
2021/03/07 07:38:56;;;;;;;19.63;8.50;;;;;;;3.19;56.02;101591.76;125625;1098;104165;-76
2021/03/07 07:41:30;;;;;;;16.47;7.23;;;;;;;3.28;56.28;101591.62;125628;1099;104172;-76
2021/03/07 07:44:00;;;;;;;19.17;7.17;;;;;;;3.33;56.10;101589.41;125641;1099;104290;-76
2021/03/07 07:46:29;;;;;;;13.37;6.00;;;;;;;3.35;55.88;101591.36;125620;1099;104169;-76
2021/03/07 07:49:00;;;;;;;12.70;5.80;;;;;;;3.39;55.03;101590.81;125625;1099;104191;-76
2021/03/07 07:51:38;;;;;;;12.47;5.37;;;;;;;3.42;55.76;101585.87;125673;1099;104293;-76
2021/03/07 07:54:09;;;;;;;18.30;6.40;;;;;;;3.41;54.68;101578.89;125674;1097;104223;-76
2021/03/07 07:56:41;;;;;;;17.43;6.80;;;;;;;3.44;55.34;101578.21;125622;1099;104268;-76
2021/03/07 07:59:12;;;;;;;17.07;6.07;;;;;;;3.50;55.13;101578.71;125571;1099;104175;-76
2021/03/07 08:01:56;;;;;;;19.87;7.17;;;;;;;3.56;54.95;101568.83;125630;1099;104287;-76
2021/03/07 08:04:37;;;;;;;15.32;6.47;;;;;;;3.63;55.21;101565.06;125616;1099;104172;-76
2021/03/07 08:07:09;;;;;;;16.17;6.43;;;;;;;3.66;54.58;101556.59;125643;1099;104597;-76
2021/03/07 08:09:45;;;;;;;14.67;5.67;;;;;;;3.69;54.19;101555.14;125640;1099;104290;-76
2021/03/07 08:12:40;;;;;;;14.70;5.97;;;;;;;3.73;54.08;101554.61;125587;1099;104245;-76
2021/03/07 08:15:36;;;;;;;16.02;6.85;;;;;;;3.82;53.95;101548.33;125623;1096;104179;-76
2021/03/07 08:18:06;;;;;;;12.17;5.47;;;;;;;3.87;53.94;101545.33;125622;1099;104208;-76
2021/03/07 08:21:00;;;;;;;15.73;6.80;;;;;;;3.96;54.11;101546.06;125663;1099;104165;-76
2021/03/07 08:23:29;;;;;;;21.13;6.80;;;;;;;4.13;53.87;101528.31;125557;1099;104172;-76
2021/03/07 08:26:00;;;;;;;12.90;5.90;;;;;;;4.25;54.15;101518.84;125626;1099;104338;-76
2021/03/07 08:28:44;;;;;;;16.07;7.03;;;;;;;4.35;53.82;101519.55;125636;1099;104224;-76
2021/03/07 08:31:36;;;;;;;12.70;5.33;;;;;;;4.36;53.62;101511.87;125608;1099;104169;-76
2021/03/07 08:34:20;;;;;;;15.17;6.37;;;;;;;4.42;53.35;101495.86;125643;1097;104182;-76
2021/03/07 08:37:00;;;;;;;17.98;7.00;;;;;;;4.51;53.82;101501.75;125620;1099;104172;-76
2021/03/07 08:39:32;;;;;;;17.30;6.63;;;;;;;4.59;53.39;101497.14;125635;1099;104271;-76
2021/03/07 08:42:03;;;;;;;15.67;6.83;;;;;;;4.62;53.11;101500.86;125639;1099;104175;-76
2021/03/07 08:44:32;;;;;;;15.93;7.03;;;;;;;4.64;53.21;101490.58;125604;1099;106585;-77
2021/03/07 08:47:01;;;;;;;14.87;6.67;;;;;;;4.68;53.18;101485.73;125618;1099;104198;-76
2021/03/07 08:49:32;;;;;;;18.17;6.90;;;;;;;4.75;53.70;101487.08;125631;1096;104287;-75
2021/03/07 08:52:05;;;;;;;17.47;7.77;;;;;;;4.87;53.59;101487.11;125621;1098;104197;-76
2021/03/07 08:54:35;;;;;;;21.20;7.80;;;;;;;4.94;53.39;101488.45;125612;1099;104227;-76
2021/03/07 08:57:09;;;;;;;17.77;7.37;;;;;;;4.99;53.45;101484.52;125624;1099;104175;-76
2021/03/07 08:59:38;;;;;;;16.23;7.47;;;;;;;5.15;53.20;101478.73;125661;1099;104168;-76
2021/03/07 09:02:07;;;;;;;17.20;7.53;;;;;;;5.27;52.83;101468.34;125654;1097;104335;-76
2021/03/07 09:04:40;;;;;;;17.60;7.67;;;;;;;5.29;52.70;101467.63;125613;1099;104175;-77
2021/03/07 09:07:09;;;;;;;15.50;6.90;;;;;;;5.32;52.17;101462.64;125670;1099;104174;-77
2021/03/07 09:09:44;;;;;;;18.25;7.15;;;;;;;5.34;52.24;101461.05;125638;1099;104181;-76
2021/03/07 09:12:17;;;;;;;16.03;6.60;;;;;;;5.37;52.67;101458.66;125670;1098;104172;-75
2021/03/07 09:14:45;;;;;;;16.47;7.27;;;;;;;5.37;52.84;101456.06;125608;1099;104226;-75
2021/03/07 09:17:21;;;;;;;16.10;6.87;;;;;;;5.38;52.24;101447.47;125637;1099;104274;-75
2021/03/07 09:19:50;;;;;;;17.73;7.07;;;;;;;5.45;52.59;101445.31;125629;1099;104236;-75
2021/03/07 09:22:22;;;;;;;13.87;6.43;;;;;;;5.53;52.32;101433.73;125639;1099;104191;-75
2021/03/07 09:25:01;;;;;;;16.93;6.80;;;;;;;5.54;51.58;101432.95;125654;1098;104233;-76
2021/03/07 09:27:33;;;;;;;15.07;6.47;;;;;;;5.53;51.96;101426.84;125732;1099;104332;-75
2021/03/07 09:30:09;;;;;;;16.87;7.07;;;;;;;5.50;52.19;101418.82;125627;1099;104238;-75
2021/03/07 09:32:40;;;;;;;16.90;7.53;;;;;;;5.51;51.63;101410.19;125643;1098;104230;-75
2021/03/07 09:35:23;;;;;;;15.03;7.20;;;;;;;5.53;51.79;101405.09;125620;1097;104178;-75
2021/03/07 09:37:58;;;;;;;15.93;7.20;;;;;;;5.66;51.71;101397.36;125657;1097;104245;-75
2021/03/07 09:40:32;;;;;;;17.30;7.37;;;;;;;5.70;51.39;101395.86;125616;1099;104185;-75
2021/03/07 09:43:05;;;;;;;16.47;7.07;;;;;;;5.72;51.66;101391.69;125619;1099;104169;-75
2021/03/07 09:45:34;;;;;;;16.53;6.97;;;;;;;5.74;50.93;101396.19;125598;1099;104174;-75
2021/03/07 09:48:04;;;;;;;15.83;7.50;;;;;;;5.79;51.41;101387.80;125628;1099;104172;-75
2021/03/07 09:50:34;;;;;;;17.40;7.23;;;;;;;5.81;51.33;101391.40;125625;1099;105040;-75
2021/03/07 09:53:05;;;;;;;18.53;7.13;;;;;;;5.80;50.95;101384.38;125654;1097;104172;-75
2021/03/07 09:55:35;;;;;;;16.70;6.80;;;;;;;5.81;51.26;101391.40;125606;1099;104370;-76
2021/03/07 09:58:06;;;;;;;14.53;6.77;;;;;;;5.85;51.10;101390.83;125627;1099;104166;-75
2021/03/07 10:00:38;;;;;;;16.90;6.47;;;;;;;5.83;50.89;101375.09;125632;1099;104418;-75
2021/03/07 10:03:18;;;;;;;15.50;6.50;;;;;;;5.81;50.33;101366.25;125615;1099;104168;-74
2021/03/07 10:06:05;;;;;;;17.03;6.50;;;;;;;5.86;50.68;101362.28;125653;1099;104204;-75
2021/03/07 10:08:35;;;;;;;15.67;6.10;;;;;;;5.90;50.25;101360.77;125615;1099;104175;-75
2021/03/07 10:11:19;;;;;;;14.87;6.20;;;;;;;5.98;50.19;101357.02;125634;1099;104361;-75
2021/03/07 10:14:00;;;;;;;14.80;5.85;;;;;;;6.08;49.59;101351.64;125670;1099;104162;-75
2021/03/07 10:16:32;;;;;;;14.60;6.10;;;;;;;6.14;49.89;101345.02;125657;1099;104194;-75
2021/03/07 10:19:07;;;;;;;12.10;5.40;;;;;;;6.18;48.91;101340.12;125647;1099;104290;-75
2021/03/07 10:21:37;;;;;;;16.03;5.67;;;;;;;6.27;49.76;101342.45;125639;1099;104220;-74
2021/03/07 10:24:09;;;;;;;12.37;5.30;;;;;;;6.37;49.70;101329.20;125590;1096;104191;-77
2021/03/07 10:26:40;;;;;;;15.33;5.60;;;;;;;6.45;49.23;101319.28;125576;1099;104226;-77
2021/03/07 10:29:19;;;;;;;17.03;6.33;;;;;;;6.55;49.16;101308.66;125616;1099;104385;-77
2021/03/07 10:32:08;;;;;;;12.10;5.80;;;;;;;6.68;49.06;101309.45;125649;1099;104309;-75
2021/03/07 10:34:39;;;;;;;10.93;5.23;;;;;;;6.81;48.79;101299.01;125664;1099;104316;-75
2021/03/07 10:37:10;;;;;;;13.90;5.60;;;;;;;6.91;49.11;101292.66;125599;1099;104204;-76
2021/03/07 10:39:39;;;;;;;12.00;5.40;;;;;;;6.96;48.71;101293.84;125699;1099;104194;-75
2021/03/07 10:42:11;;;;;;;10.27;4.97;;;;;;;7.01;48.80;101287.19;125711;1099;104185;-75
2021/03/07 10:44:41;;;;;;;12.07;5.33;;;;;;;7.11;48.62;101286.97;125667;1099;104175;-76
2021/03/07 10:47:20;;;;;;;14.90;6.00;;;;;;;7.24;48.47;101286.02;125589;1099;105569;-76
2021/03/07 10:49:51;;;;;;;15.23;5.40;;;;;;;7.36;48.59;101288.48;125641;1099;104230;-76
2021/03/07 10:52:20;;;;;;;13.17;6.03;;;;;;;7.40;48.61;101277.41;125659;1099;104188;-75
2021/03/07 10:54:48;;;;;;;13.93;5.53;;;;;;;7.43;48.08;101282.81;125707;1099;104178;-75
2021/03/07 10:57:17;;;;;;;13.23;5.50;;;;;;;7.45;47.95;101273.38;125639;1099;104172;-75
2021/03/07 10:59:51;;;;;;;14.53;5.67;;;;;;;7.49;47.81;101266.63;125636;1099;104173;-75
2021/03/07 11:02:20;;;;;;;14.07;5.12;;;;;;;7.50;47.77;101260.61;125665;1099;104291;-76
2021/03/07 11:04:49;;;;;;;10.30;5.10;;;;;;;7.44;47.32;101260.23;125648;1099;104605;-76
2021/03/07 11:07:18;;;;;;;13.53;5.30;;;;;;;7.44;47.79;101248.07;125643;1097;104169;-76
2021/03/07 11:09:47;;;;;;;12.30;5.57;;;;;;;7.34;47.06;101238.79;125684;1099;104294;-75
2021/03/07 11:12:16;;;;;;;13.10;5.43;;;;;;;7.22;46.79;101232.82;125587;1099;104168;-75
2021/03/07 11:14:45;;;;;;;11.23;5.03;;;;;;;7.21;47.41;101225.78;125640;1099;104213;-75
2021/03/07 11:17:14;;;;;;;12.07;5.03;;;;;;;7.19;47.09;101230.02;125638;1098;104306;-75
2021/03/07 11:19:42;;;;;;;11.30;5.30;;;;;;;7.24;47.06;101223.36;125642;1099;104168;-76
2021/03/07 11:22:11;;;;;;;9.97;5.33;;;;;;;7.28;47.05;101219.25;125618;1099;104207;-76